createdAt,value
2023-02-19T00:00:39.058Z,99248.38
2023-02-19T00:03:42.452Z,99259.81
2023-02-19T00:06:45.263Z,99247.37
2023-02-19T00:09:47.472Z,99253.06
2023-02-19T00:12:49.714Z,99254.72
2023-02-19T00:15:51.951Z,99245.50
2023-02-19T00:18:55.897Z,99237.91
2023-02-19T00:21:58.060Z,99237.72
2023-02-19T00:25:00.249Z,99234.44
2023-02-19T00:28:02.475Z,99249.53
2023-02-19T00:31:15.473Z,99245.81
2023-02-19T00:34:17.811Z,99237.91
2023-02-19T00:37:19.986Z,99247.03
2023-02-19T00:40:22.877Z,99242.78
2023-02-19T00:43:25.079Z,99246.87
2023-02-19T00:46:33.528Z,99234.84
2023-02-19T00:49:36.228Z,99243.56
2023-02-19T00:52:38.496Z,99241.53
2023-02-19T00:55:40.724Z,99241.31
2023-02-19T00:58:42.935Z,99247.22
2023-02-19T01:01:45.484Z,99243.72
2023-02-19T01:04:47.742Z,99235.19
2023-02-19T01:07:49.943Z,99236.78
2023-02-19T01:10:52.177Z,99234.50
2023-02-19T01:13:58.502Z,99239.22
2023-02-19T01:17:00.749Z,99232.28
2023-02-19T01:20:03.025Z,99235.16
2023-02-19T01:23:05.440Z,99217.19
2023-02-19T01:26:10.833Z,99232.09
2023-02-19T01:29:13.031Z,99223.66
2023-02-19T01:32:15.220Z,99215.06
2023-02-19T01:35:17.501Z,99207.28
2023-02-19T01:38:19.641Z,99211.56
2023-02-19T01:41:23.989Z,99211.91
2023-02-19T01:44:46.347Z,99210.47
2023-02-19T01:47:53.463Z,99214.13
2023-02-19T01:51:18.047Z,99210.69
2023-02-19T01:54:22.936Z,99217.50
2023-02-19T01:57:32.185Z,99208.94
2023-02-19T02:00:34.571Z,99209.19
2023-02-19T02:03:38.722Z,99214.00
2023-02-19T02:06:56.137Z,99212.78
2023-02-19T02:10:16.804Z,99219.69
2023-02-19T02:13:19.372Z,99215.63
2023-02-19T02:16:32.055Z,99211.31
2023-02-19T02:19:52.614Z,99222.53
2023-02-19T02:23:10.772Z,99214.28
2023-02-19T02:26:45.452Z,99209.81
2023-02-19T02:30:13.638Z,99186.22
2023-02-19T02:33:21.555Z,99180.97
2023-02-19T02:36:27.767Z,99200.34
2023-02-19T02:39:30.719Z,99202.75
2023-02-19T02:42:34.655Z,99198.66
2023-02-19T02:45:37.347Z,99204.38
2023-02-19T02:48:53.985Z,99202.41
2023-02-19T02:51:57.674Z,99204.81
2023-02-19T02:55:05.787Z,99210.50
2023-02-19T02:58:08.373Z,99210.25
2023-02-19T03:01:56.551Z,99213.72
2023-02-19T03:05:28.672Z,99203.75
2023-02-19T03:08:42.883Z,99214.50
2023-02-19T03:12:05.696Z,99215.00
2023-02-19T03:15:27.988Z,99210.38
2023-02-19T03:18:49.289Z,99209.22
2023-02-19T03:22:01.880Z,99211.72
2023-02-19T03:25:30.223Z,99228.59
2023-02-19T03:28:52.044Z,99226.38
2023-02-19T03:32:19.712Z,99230.50
2023-02-19T03:35:37.000Z,99230.28
2023-02-19T03:38:49.491Z,99247.09
2023-02-19T03:41:51.716Z,99238.41
2023-02-19T03:45:16.042Z,99235.38
2023-02-19T03:48:29.095Z,99232.84
2023-02-19T03:51:50.372Z,99225.34
2023-02-19T03:55:13.492Z,99233.97
2023-02-19T03:58:26.269Z,99231.53
2023-02-19T04:01:47.864Z,99219.09
2023-02-19T04:04:51.050Z,99221.91
2023-02-19T04:07:57.632Z,99228.31
2023-02-19T04:11:00.551Z,99245.16
2023-02-19T04:14:10.274Z,99235.00
2023-02-19T04:17:38.876Z,99224.03
2023-02-19T04:20:44.689Z,99226.50
2023-02-19T04:23:47.673Z,99234.44
2023-02-19T04:26:49.858Z,99225.19
2023-02-19T04:29:52.030Z,99225.09
2023-02-19T04:32:54.201Z,99227.75
2023-02-19T04:35:56.532Z,99228.53
2023-02-19T04:38:59.172Z,99235.44
2023-02-19T04:42:01.381Z,99233.25
2023-02-19T04:45:04.092Z,99236.81
2023-02-19T04:48:06.361Z,99235.16
2023-02-19T04:51:09.754Z,99235.00
2023-02-19T04:54:12.134Z,99233.63
2023-02-19T04:57:14.323Z,99231.03
2023-02-19T05:00:16.534Z,99221.09
2023-02-19T05:03:18.820Z,99219.53
2023-02-19T05:06:21.018Z,99220.88
2023-02-19T05:09:23.187Z,99212.31
2023-02-19T05:12:26.203Z,99209.44
2023-02-19T05:15:28.448Z,99213.31
2023-02-19T05:18:31.499Z,99204.53
2023-02-19T05:21:33.938Z,99202.06
2023-02-19T05:24:36.148Z,99194.47
2023-02-19T05:27:38.390Z,99196.75
2023-02-19T05:30:40.589Z,99206.75
2023-02-19T05:33:44.182Z,99203.81
2023-02-19T05:36:46.378Z,99213.47
2023-02-19T05:39:49.306Z,99224.72
2023-02-19T05:42:51.505Z,99224.41
2023-02-19T05:45:53.675Z,99240.25
2023-02-19T05:48:56.112Z,99233.47
2023-02-19T05:51:58.327Z,99229.59
2023-02-19T05:55:00.543Z,99231.03
2023-02-19T05:58:02.863Z,99232.09
2023-02-19T06:01:05.180Z,99234.31
2023-02-19T06:04:07.423Z,99242.94
2023-02-19T06:07:09.651Z,99232.34
2023-02-19T06:10:12.502Z,99226.34
2023-02-19T06:13:16.262Z,99232.53
2023-02-19T06:16:19.831Z,99229.94
2023-02-19T06:19:22.161Z,99236.50
2023-02-19T06:22:24.488Z,99229.84
2023-02-19T06:25:26.713Z,99229.69
2023-02-19T06:28:28.902Z,99228.91
2023-02-19T06:31:31.271Z,99211.25
2023-02-19T06:34:34.494Z,99198.19
2023-02-19T06:37:36.672Z,99208.16
2023-02-19T06:40:38.866Z,99214.09
2023-02-19T06:43:41.431Z,99204.91
2023-02-19T06:46:43.669Z,99193.37
2023-02-19T06:49:45.937Z,99205.78
2023-02-19T06:52:48.107Z,99194.03
2023-02-19T06:56:01.487Z,99204.81
2023-02-19T06:59:05.080Z,99204.44
2023-02-19T07:02:07.517Z,99212.84
2023-02-19T07:05:09.851Z,99201.03
2023-02-19T07:08:12.073Z,99198.72
2023-02-19T07:11:14.317Z,99216.63
2023-02-19T07:14:17.156Z,99229.28
2023-02-19T07:17:19.653Z,99226.03
2023-02-19T07:20:21.847Z,99226.41
2023-02-19T07:23:24.035Z,99225.81
2023-02-19T07:26:26.226Z,99215.59
2023-02-19T07:29:28.442Z,99207.09
2023-02-19T07:32:30.662Z,99203.19
2023-02-19T07:35:32.893Z,99200.66
2023-02-19T07:38:35.099Z,99197.41
2023-02-19T07:41:37.272Z,99201.69
2023-02-19T07:44:39.437Z,99197.84
2023-02-19T07:47:41.614Z,99185.41
2023-02-19T07:50:51.963Z,99181.41
2023-02-19T07:53:54.181Z,99183.44
2023-02-19T07:56:56.406Z,99189.03
2023-02-19T07:59:58.996Z,99185.37
2023-02-19T08:03:01.599Z,99194.78
2023-02-19T08:06:04.483Z,99211.38
2023-02-19T08:09:06.786Z,99222.75
2023-02-19T08:12:29.982Z,99231.37
2023-02-19T08:15:33.059Z,99231.53
2023-02-19T08:18:35.226Z,99237.28
2023-02-19T08:21:37.410Z,99237.44
2023-02-19T08:24:42.927Z,99236.19
2023-02-19T08:27:45.979Z,99241.69
2023-02-19T08:30:48.589Z,99237.19
2023-02-19T08:33:50.876Z,99239.03
2023-02-19T08:36:53.038Z,99239.03
2023-02-19T08:39:55.330Z,99245.56
2023-02-19T08:43:05.826Z,99248.16
2023-02-19T08:46:11.893Z,99242.66
2023-02-19T08:49:14.082Z,99240.00
2023-02-19T08:52:16.260Z,99235.66
2023-02-19T08:55:18.850Z,99235.72
2023-02-19T08:58:21.189Z,99231.63
2023-02-19T09:01:23.963Z,99228.78
2023-02-19T09:04:26.245Z,99224.28
2023-02-19T09:07:28.489Z,99218.16
2023-02-19T09:10:30.704Z,99216.72
2023-02-19T09:13:33.324Z,99222.03
2023-02-19T09:16:36.505Z,99229.75
2023-02-19T09:19:38.766Z,99237.66
2023-02-19T09:22:40.936Z,99228.91
2023-02-19T09:25:43.171Z,99219.78
2023-02-19T09:28:45.436Z,99220.69
2023-02-19T09:31:48.104Z,99220.66
2023-02-19T09:34:50.373Z,99218.53
2023-02-19T09:37:52.609Z,99224.16
2023-02-19T09:40:57.044Z,99223.53
2023-02-19T09:44:00.463Z,99223.09
2023-02-19T09:47:06.256Z,99213.66
2023-02-19T09:50:10.162Z,99219.09
2023-02-19T09:53:27.530Z,99217.97
2023-02-19T09:56:30.117Z,99193.41
2023-02-19T09:59:40.213Z,99195.53
2023-02-19T10:02:42.409Z,99181.91
2023-02-19T10:05:44.660Z,99179.00
2023-02-19T10:08:48.386Z,99171.03
2023-02-19T10:11:51.820Z,99169.47
2023-02-19T10:15:00.311Z,99160.75
2023-02-19T10:18:04.001Z,99154.84
2023-02-19T10:21:06.513Z,99149.94
2023-02-19T10:24:09.176Z,99144.03
2023-02-19T10:27:15.593Z,99153.84
2023-02-19T10:30:22.385Z,99141.53
2023-02-19T10:33:25.297Z,99149.22
2023-02-19T10:36:37.486Z,99133.53
2023-02-19T10:39:43.696Z,99114.19
2023-02-19T10:42:48.321Z,99108.91
2023-02-19T10:45:52.932Z,99103.16
2023-02-19T10:48:58.593Z,99106.44
2023-02-19T10:52:03.357Z,99102.06
2023-02-19T10:55:20.941Z,99099.59
2023-02-19T10:58:30.407Z,99100.94
2023-02-19T11:01:32.730Z,99095.16
2023-02-19T11:04:38.021Z,99093.03
2023-02-19T11:07:44.559Z,99081.75
2023-02-19T11:10:48.056Z,99088.66
2023-02-19T11:13:50.348Z,99078.91
2023-02-19T11:16:53.583Z,99084.47
2023-02-19T11:19:57.608Z,99082.69
2023-02-19T11:23:13.033Z,99090.16
2023-02-19T11:26:27.129Z,99092.88
2023-02-19T11:29:34.660Z,99090.59
2023-02-19T11:32:36.962Z,99072.06
2023-02-19T11:35:39.157Z,99074.09
2023-02-19T11:38:41.477Z,99074.75
2023-02-19T11:42:00.798Z,99084.59
2023-02-19T11:45:30.190Z,99078.72
2023-02-19T11:48:44.545Z,99065.78
2023-02-19T11:51:55.802Z,99076.38
2023-02-19T11:55:02.594Z,99069.81
2023-02-19T11:58:29.881Z,99062.50
2023-02-19T12:01:46.955Z,99050.22
2023-02-19T12:05:07.554Z,99055.94
2023-02-19T12:08:10.502Z,99047.13
2023-02-19T12:11:39.233Z,99047.50
2023-02-19T12:14:52.353Z,99050.72
2023-02-19T12:18:10.172Z,99047.81
2023-02-19T12:21:18.594Z,99047.87
2023-02-19T12:24:27.832Z,99040.31
2023-02-19T12:27:42.361Z,99020.97
2023-02-19T12:30:53.689Z,99016.63
2023-02-19T12:34:17.330Z,99017.87
2023-02-19T12:37:51.648Z,99047.91
2023-02-19T12:41:10.403Z,99047.22
2023-02-19T12:44:31.301Z,99034.28
2023-02-19T12:47:39.508Z,99033.87
2023-02-19T12:50:46.853Z,99055.09
2023-02-19T12:54:01.493Z,99053.59
2023-02-19T12:57:12.744Z,99051.25
2023-02-19T13:00:30.696Z,99040.75
2023-02-19T13:03:38.075Z,99053.28
2023-02-19T13:06:45.740Z,99054.81
2023-02-19T13:09:58.790Z,99065.97
2023-02-19T13:13:06.297Z,99060.38
2023-02-19T13:16:18.756Z,99053.09
2023-02-19T13:19:21.488Z,99051.81
2023-02-19T13:23:05.326Z,99049.59
2023-02-19T13:26:26.305Z,99065.50
2023-02-19T13:29:37.455Z,99037.50
2023-02-19T13:32:57.950Z,99031.06
2023-02-19T13:36:20.298Z,99048.37
2023-02-19T13:39:23.139Z,99037.66
2023-02-19T13:42:27.939Z,99053.25
2023-02-19T13:45:39.885Z,99049.84
2023-02-19T13:48:44.298Z,99052.06
2023-02-19T13:51:57.314Z,99045.94
2023-02-19T13:55:41.298Z,99026.63
2023-02-19T13:58:54.283Z,99040.00
2023-02-19T14:01:56.592Z,99059.47
2023-02-19T14:05:05.448Z,99046.28
2023-02-19T14:08:09.128Z,99049.75
2023-02-19T14:11:14.317Z,99048.63
2023-02-19T14:14:36.313Z,99050.88
2023-02-19T14:17:42.194Z,99061.56
2023-02-19T14:20:45.641Z,99065.31
2023-02-19T14:23:53.867Z,99056.97
2023-02-19T14:26:57.254Z,99083.19
2023-02-19T14:29:59.971Z,99083.25
2023-02-19T14:33:10.639Z,99115.03
2023-02-19T14:36:48.723Z,99106.47
2023-02-19T14:39:54.238Z,99111.88
2023-02-19T14:42:57.469Z,99109.19
2023-02-19T14:46:35.116Z,99108.38
2023-02-19T14:49:51.669Z,99092.47
2023-02-19T14:52:57.768Z,99105.56
2023-02-19T14:56:00.729Z,99101.31
2023-02-19T14:59:06.254Z,99082.72
2023-02-19T15:02:17.318Z,99085.38
2023-02-19T15:05:24.587Z,99079.44
2023-02-19T15:08:32.055Z,99057.41
2023-02-19T15:11:35.155Z,99071.53
2023-02-19T15:14:39.624Z,99048.84
2023-02-19T15:17:42.104Z,99049.44
2023-02-19T15:20:44.494Z,99065.41
2023-02-19T15:23:47.012Z,99060.50
2023-02-19T15:26:54.253Z,99060.31
2023-02-19T15:29:56.751Z,99067.66
2023-02-19T15:33:00.214Z,99089.09
2023-02-19T15:36:06.015Z,99094.59
2023-02-19T15:39:17.897Z,99105.44
2023-02-19T15:42:24.242Z,99130.53
2023-02-19T15:45:47.279Z,99124.41
2023-02-19T15:49:18.504Z,99144.44
2023-02-19T15:52:41.977Z,99157.25
2023-02-19T15:56:14.964Z,99156.84
2023-02-19T15:59:33.562Z,99164.59
2023-02-19T16:02:36.219Z,99161.09
2023-02-19T16:05:40.651Z,99166.16
2023-02-19T16:09:02.124Z,99165.53
2023-02-19T16:12:19.880Z,99167.00
2023-02-19T16:15:22.348Z,99173.28
2023-02-19T16:18:24.748Z,99177.75
2023-02-19T16:21:27.897Z,99164.31
2023-02-19T16:24:35.381Z,99166.97
2023-02-19T16:27:40.521Z,99166.97
2023-02-19T16:30:43.162Z,99164.09
2023-02-19T16:33:48.664Z,99169.19
2023-02-19T16:36:51.749Z,99168.75
2023-02-19T16:40:17.720Z,99179.56
2023-02-19T16:43:31.705Z,99184.06
2023-02-19T16:46:34.245Z,99192.59
2023-02-19T16:49:37.856Z,99201.72
2023-02-19T16:53:01.577Z,99178.87
2023-02-19T16:56:04.401Z,99186.41
2023-02-19T16:59:07.997Z,99189.00
2023-02-19T17:02:17.192Z,99204.62
2023-02-19T17:05:22.542Z,99213.38
2023-02-19T17:08:40.327Z,99212.94
2023-02-19T17:11:43.840Z,99217.19
2023-02-19T17:14:46.326Z,99228.56
2023-02-19T17:17:49.251Z,99226.66
2023-02-19T17:21:32.258Z,99234.31
2023-02-19T17:24:35.717Z,99242.94
2023-02-19T17:27:38.145Z,99223.72
2023-02-19T17:30:40.761Z,99216.37
2023-02-19T17:33:44.020Z,99223.25
2023-02-19T17:36:51.981Z,99222.72
2023-02-19T17:39:54.474Z,99233.88
2023-02-19T17:42:58.705Z,99229.03
2023-02-19T17:46:01.422Z,99224.19
2023-02-19T17:49:03.919Z,99230.47
2023-02-19T17:52:07.492Z,99234.88
2023-02-19T17:55:11.886Z,99253.75
2023-02-19T17:58:14.771Z,99254.34
2023-02-19T18:01:17.766Z,99251.63
2023-02-19T18:04:20.700Z,99262.75
2023-02-19T18:07:23.675Z,99262.94
2023-02-19T18:10:27.596Z,99263.94
2023-02-19T18:13:30.348Z,99272.75
2023-02-19T18:16:32.809Z,99282.72
2023-02-19T18:19:35.270Z,99293.81
2023-02-19T18:22:40.685Z,99298.34
2023-02-19T18:25:43.432Z,99316.28
2023-02-19T18:28:46.477Z,99334.16
2023-02-19T18:31:48.921Z,99346.81
2023-02-19T18:34:52.844Z,99339.25
2023-02-19T18:37:56.536Z,99356.31
2023-02-19T18:40:59.499Z,99358.09
2023-02-19T18:44:01.977Z,99358.81
2023-02-19T18:47:04.968Z,99348.06
2023-02-19T18:50:08.612Z,99351.22
2023-02-19T18:53:15.715Z,99362.94
2023-02-19T18:56:18.344Z,99353.34
2023-02-19T18:59:21.770Z,99358.19
2023-02-19T19:02:26.346Z,99355.34
2023-02-19T19:05:29.544Z,99347.25
2023-02-19T19:08:32.134Z,99330.41
2023-02-19T19:11:34.502Z,99327.91
2023-02-19T19:14:37.463Z,99336.84
2023-02-19T19:17:40.924Z,99365.84
2023-02-19T19:20:43.547Z,99370.22
2023-02-19T19:23:46.075Z,99384.97
2023-02-19T19:26:49.214Z,99383.63
2023-02-19T19:29:51.980Z,99401.31
2023-02-19T19:32:54.458Z,99401.41
2023-02-19T19:35:57.049Z,99418.16
2023-02-19T19:39:02.131Z,99440.62
2023-02-19T19:42:04.746Z,99444.25
2023-02-19T19:45:07.755Z,99465.13
2023-02-19T19:48:10.277Z,99470.03
2023-02-19T19:51:13.264Z,99488.91
2023-02-19T19:54:16.150Z,99494.09
2023-02-19T19:57:18.695Z,99502.09
2023-02-19T20:00:23.512Z,99517.19
2023-02-19T20:03:26.116Z,99527.28
2023-02-19T20:06:31.029Z,99530.63
2023-02-19T20:09:33.832Z,99538.81
2023-02-19T20:12:36.355Z,99534.03
2023-02-19T20:15:38.861Z,99532.25
2023-02-19T20:18:41.819Z,99537.53
2023-02-19T20:21:45.864Z,99537.13
2023-02-19T20:24:52.648Z,99523.63
2023-02-19T20:27:55.249Z,99527.47
2023-02-19T20:30:57.782Z,99517.94
2023-02-19T20:34:00.646Z,99534.38
2023-02-19T20:37:03.154Z,99525.34
2023-02-19T20:40:06.351Z,99553.94
2023-02-19T20:43:08.876Z,99554.47
2023-02-19T20:46:11.935Z,99564.38
2023-02-19T20:49:16.418Z,99574.97
2023-02-19T20:52:20.740Z,99576.28
2023-02-19T20:55:24.225Z,99576.13
2023-02-19T20:58:28.876Z,99570.72
2023-02-19T21:01:31.294Z,99587.84
2023-02-19T21:04:34.231Z,99590.16
2023-02-19T21:07:36.729Z,99574.81
2023-02-19T21:10:39.007Z,99584.72
2023-02-19T21:13:42.867Z,99581.94
2023-02-19T21:16:45.296Z,99579.63
2023-02-19T21:19:50.088Z,99589.16
2023-02-19T21:22:52.918Z,99651.59
2023-02-19T21:25:56.501Z,99592.47
2023-02-19T21:28:58.782Z,99599.56
2023-02-19T21:32:01.276Z,99580.75
2023-02-19T21:35:03.926Z,99584.91
2023-02-19T21:38:08.949Z,99613.84
2023-02-19T21:41:11.118Z,99608.75
2023-02-19T21:44:13.661Z,99600.84
2023-02-19T21:47:16.187Z,99610.03
2023-02-19T21:50:22.533Z,99595.34
2023-02-19T21:53:24.928Z,99608.66
2023-02-19T21:56:28.998Z,99618.84
2023-02-19T21:59:31.177Z,99619.66
2023-02-19T22:02:33.450Z,99640.16
2023-02-19T22:05:36.267Z,99646.69
2023-02-19T22:08:38.430Z,99648.66
2023-02-19T22:11:40.774Z,99662.91
2023-02-19T22:14:43.045Z,99662.22
2023-02-19T22:17:45.820Z,99674.50
2023-02-19T22:20:47.979Z,99662.94
2023-02-19T22:23:51.855Z,99667.97
2023-02-19T22:26:57.991Z,99677.97
2023-02-19T22:30:00.217Z,99678.75
2023-02-19T22:33:03.439Z,99688.28
2023-02-19T22:36:06.127Z,99691.69
2023-02-19T22:39:15.263Z,99686.13
2023-02-19T22:42:17.462Z,99697.41
2023-02-19T22:45:19.627Z,99703.47
2023-02-19T22:48:29.540Z,99725.63
2023-02-19T22:51:32.731Z,99738.56
2023-02-19T22:54:35.884Z,99740.91
2023-02-19T22:57:38.070Z,99740.91
2023-02-19T23:00:40.271Z,99754.31
2023-02-19T23:03:49.337Z,99764.56
2023-02-19T23:06:51.671Z,99768.84
2023-02-19T23:09:53.928Z,99779.28
2023-02-19T23:12:56.222Z,99787.31
2023-02-19T23:15:58.420Z,99784.97
2023-02-19T23:19:00.625Z,99796.50
2023-02-19T23:22:03.191Z,99796.09
2023-02-19T23:25:05.739Z,99802.56
2023-02-19T23:28:07.920Z,99807.44
2023-02-19T23:31:11.227Z,99804.03
2023-02-19T23:34:14.074Z,99807.78
2023-02-19T23:37:16.628Z,99801.16
2023-02-19T23:40:19.140Z,99807.25
2023-02-19T23:43:21.614Z,99814.59
2023-02-19T23:46:23.821Z,99812.94
2023-02-19T23:49:26.045Z,99810.59
2023-02-19T23:52:28.194Z,99817.06
2023-02-19T23:55:30.368Z,99821.69
2023-02-19T23:58:32.634Z,99818.09
